WetterOnline ( https://www.wetteronline.de )

Wetter aktuell Jiretin pod Bukovou

Aktuelles Wetter: Pec Pod Snezkou (820m)

6-stündlich | Neueste Meldungen
Ortszeit Temperatur Wetter
Do, 29.10. 1:00 6.2° C -
Mi, 28.10. 19:00 5.3° C Regen
Mi, 28.10. 13:00 6.8° C wolkig
Mi, 28.10. 7:00 2.4° C fast wolkenlos
Mi, 28.10. 1:00 4.5° C -
Di, 27.10. 19:00 4.8° C bewölkt
Di, 27.10. 13:00 5.4° C leichter Regen
Di, 27.10. 7:00 4.8° C leichter Regen
Ortszeit Temperatur Wetter
Do, 29.10. 6:00 5.7° C leichte Schauer
Do, 29.10. 5:00 5.8° C leichter Regen
Do, 29.10. 4:00 6.1° C leichter Regen
Do, 29.10. 3:00 6.2° C -
Do, 29.10. 2:00 6.1° C -
Do, 29.10. 1:00 6.2° C -
Ortszeit Relative Feuchte Sichtweite
Do, 29.10. 1:00 97% 10 km
Mi, 28.10. 19:00 97% 4.0 km
Mi, 28.10. 13:00 66% 30 km
Mi, 28.10. 7:00 93% 30 km
Mi, 28.10. 1:00 88% 35 km
Di, 27.10. 19:00 91% 15 km
Di, 27.10. 13:00 88% 15 km
Di, 27.10. 7:00 95% 20 km
Ortszeit Relative Feuchte Sichtweite
Do, 29.10. 6:00 95% 22 km
Do, 29.10. 5:00 94% 12 km
Do, 29.10. 4:00 93% 14 km
Do, 29.10. 3:00 94% 23 km
Do, 29.10. 2:00 94% 25 km
Do, 29.10. 1:00 97% 10 km
Ortszeit Niederschlagsmenge Niederschlagsart
Do, 29.10. 1:00 0.2 l/m2 in 6 Std. Regen
Mi, 28.10. 19:00 2 l/m2 in 12 Std. Regen
Mi, 28.10. 13:00 0.0 l/m2 in 6 Std. -
Mi, 28.10. 7:00 0.0 l/m2 in 12 Std. -
Mi, 28.10. 1:00 0.0 l/m2 in 6 Std. -
Di, 27.10. 19:00 0.8 l/m2 in 12 Std. Regen
Di, 27.10. 13:00 0.7 l/m2 in 6 Std. Regen
Di, 27.10. 7:00 3 l/m2 in 12 Std. -
Ortszeit Niederschlagsmenge Niederschlagsart
Do, 29.10. 6:00 0.1 l/m2 in 1 Std. Regen
Do, 29.10. 5:00 0.6 l/m2 in 1 Std. -
Do, 29.10. 4:00 0.0 l/m2 in 1 Std. -
Do, 29.10. 3:00 0.0 l/m2 in 1 Std. -
Do, 29.10. 2:00 0.0 l/m2 in 1 Std. -
Do, 29.10. 1:00 0.0 l/m2 in 1 Std. Regen
Ortszeit Stärke Spitze Richtung
km/h Bft. km/h Grad Sektor
Do, 29.10. 1:00 14 3 - 210° SW
Mi, 28.10. 19:00 4 1 - 150° SO
Mi, 28.10. 13:00 7 2 - 160° S
Mi, 28.10. 7:00 7 2 - 230° SW
Mi, 28.10. 1:00 11 2 - 200° S
Di, 27.10. 19:00 14 3 - 190° S
Di, 27.10. 13:00 11 2 - 180° S
Di, 27.10. 7:00 4 1 - 210° SW
Ortszeit Stärke Spitze Richtung
km/h Bft. km/h Grad Sektor
Do, 29.10. 6:00 11 2 - 160° S
Do, 29.10. 5:00 11 2 - 160° S
Do, 29.10. 4:00 11 2 - 200° S
Do, 29.10. 3:00 7 2 - - -
Do, 29.10. 2:00 11 2 - 230° SW
Do, 29.10. 1:00 14 3 - 210° SW
Ortszeit Untergrenze Bedeckung Gattung
total tief tief mittel hoch
Do, 29.10. 1:00 90 m - 8/8 - - -
Mi, 28.10. 19:00 240 m 8/8 8/8 St - -
Mi, 28.10. 13:00 900 m 8/8 1/8 Sc As -
Mi, 28.10. 7:00 9000 m 1/8 0/8 - - Ci
Mi, 28.10. 1:00 300 m - 7/8 - - -
Di, 27.10. 19:00 240 m 7/8 7/8 St - -
Di, 27.10. 13:00 390 m 8/8 8/8 Sc - -
Di, 27.10. 7:00 300 m 8/8 8/8 Sc - -
Ortszeit Bedeckungsgrad in Achtel und Wolkenuntergrenze
Do, 29.10. 6:00 8(120m)
Do, 29.10. 5:00 8(180m)
Do, 29.10. 4:00 8(180m)
Do, 29.10. 3:00 8(210m)
Do, 29.10. 2:00 8(90m)
Do, 29.10. 1:00 8(90m)
Ortszeit Stationsdruck (hPa) Tendenz (hPa in 3 Std.)
Do, 29.10. 1:00 920 - 0,5
Mi, 28.10. 19:00 920 + 0,1
Mi, 28.10. 13:00 919 + 0,3
Mi, 28.10. 7:00 918 0,0
Mi, 28.10. 1:00 919 - 0,1
Di, 27.10. 19:00 918 + 1,0
Di, 27.10. 13:00 917 + 0,8
Di, 27.10. 7:00 915 + 1,7
Ortszeit Stationsdruck (hPa) Tendenz (hPa in 3 Std.)
Do, 29.10. 6:00 918 - 1,0
Do, 29.10. 5:00 919 - 1,0
Do, 29.10. 4:00 919 - 0,8
Do, 29.10. 3:00 919 - 0,7
Do, 29.10. 2:00 920 - 0,4
Do, 29.10. 1:00 920 - 0,5
Ortszeit Schneehöhe (cm)
Do, 29.10. 1:00 -
Mi, 28.10. 19:00 -
Mi, 28.10. 13:00 -
Mi, 28.10. 7:00 0
Mi, 28.10. 1:00 -
Di, 27.10. 19:00 -
Di, 27.10. 13:00 -
Di, 27.10. 7:00 -
Ortszeit Schneehöhe (cm)
Do, 29.10. 6:00 -
Do, 29.10. 5:00 -
Do, 29.10. 4:00 -
Do, 29.10. 3:00 -
Do, 29.10. 2:00 -
Do, 29.10. 1:00 -
Link zu dieser Seite / Seite empfehlen

Das Wetter in ...